Time;durP1;ratioP1;P1;durP2;ratioP2;P2;SDS_P1;SDS_P2;PMS_P1;PMS_P2;Temp;Humidity;BMP_temperature;BMP_pressure;BME280_temperature;BME280_humidity;BME280_pressure;Samples;Min_cycle;Max_cycle;Signal;HPM_P1;HPM_P2
2023/06/25 00:00:55;;;;;;;10.65;6.65;;;;;;;17.30;100.00;100034.66;4952593;28;20045;-80
2023/06/25 00:03:23;;;;;;;16.13;6.85;;;;;;;17.31;100.00;100025.63;4933449;29;20035;-80
2023/06/25 00:05:49;;;;;;;16.15;6.88;;;;;;;17.29;100.00;100022.34;4929687;28;20038;-79
2023/06/25 00:08:16;;;;;;;9.82;5.97;;;;;;;17.25;100.00;100003.22;4964709;28;20109;-81
2023/06/25 00:10:42;;;;;;;12.38;6.53;;;;;;;17.25;100.00;100005.06;4955562;28;20069;-79
2023/06/25 00:13:07;;;;;;;8.65;6.05;;;;;;;17.21;100.00;99984.09;4934459;28;20058;-81
2023/06/25 00:15:33;;;;;;;10.68;6.18;;;;;;;17.21;100.00;99975.25;4951350;28;20039;-80
2023/06/25 00:18:00;;;;;;;10.18;5.88;;;;;;;17.20;100.00;99963.75;4946253;28;20031;-79
2023/06/25 00:20:26;;;;;;;11.98;6.50;;;;;;;17.20;100.00;99949.59;4937669;28;20433;-79
2023/06/25 00:22:52;;;;;;;11.55;6.03;;;;;;;17.19;100.00;99946.09;4964230;28;20504;-79
2023/06/25 00:25:19;;;;;;;10.93;6.72;;;;;;;17.18;100.00;99943.63;4967868;28;20050;-79
2023/06/25 00:27:47;;;;;;;10.23;5.97;;;;;;;17.18;100.00;99932.94;4953258;28;20035;-79
2023/06/25 00:30:15;;;;;;;14.20;6.70;;;;;;;17.18;100.00;99907.06;4961487;28;20040;-79
2023/06/25 00:32:42;;;;;;;18.02;7.30;;;;;;;17.18;100.00;99898.22;4960639;28;20027;-80
2023/06/25 00:35:09;;;;;;;11.18;6.53;;;;;;;17.20;100.00;99888.97;4966970;28;20046;-78
2023/06/25 00:37:36;;;;;;;13.77;6.95;;;;;;;17.20;100.00;99907.66;4963696;28;20031;-79
2023/06/25 00:40:05;;;;;;;11.77;6.18;;;;;;;17.20;100.00;99888.97;4938098;28;20050;-79
2023/06/25 00:42:41;;;;;;;14.20;6.82;;;;;;;17.21;100.00;99877.28;4976318;28;20775;-79
2023/06/25 00:45:09;;;;;;;10.48;6.10;;;;;;;17.20;100.00;99872.94;4937187;28;20038;-79
2023/06/25 00:47:35;;;;;;;14.50;7.90;;;;;;;17.19;100.00;99890.00;4928538;28;20038;-80
2023/06/25 00:50:02;;;;;;;9.43;6.18;;;;;;;17.17;100.00;99886.72;4921317;28;20045;-79
2023/06/25 00:52:29;;;;;;;12.68;6.28;;;;;;;17.17;100.00;99873.34;4953147;28;20043;-79
2023/06/25 00:54:55;;;;;;;15.38;6.10;;;;;;;17.14;100.00;99856.94;4945664;28;20080;-79
2023/06/25 00:57:21;;;;;;;11.93;6.05;;;;;;;17.11;100.00;99855.47;4979485;28;20026;-79
2023/06/25 00:59:48;;;;;;;16.27;6.60;;;;;;;17.12;100.00;99851.75;4963091;28;20793;-79
2023/06/25 01:02:29;;;;;;;13.52;6.63;;;;;;;17.16;100.00;99852.19;4990643;28;20050;-81
2023/06/25 01:05:11;;;;;;;11.98;6.50;;;;;;;17.17;100.00;99861.88;4986028;28;20385;-83
2023/06/25 01:07:45;;;;;;;13.70;6.43;;;;;;;17.15;100.00;99861.25;4972478;28;20038;-81
2023/06/25 01:10:12;;;;;;;16.88;6.85;;;;;;;17.14;100.00;99856.94;4956425;28;20149;-79
2023/06/25 01:12:39;;;;;;;14.13;7.10;;;;;;;17.14;100.00;99863.06;4958291;28;20456;-79
2023/06/25 01:15:05;;;;;;;21.20;7.18;;;;;;;17.17;100.00;99864.53;4970963;28;20077;-80
2023/06/25 01:17:32;;;;;;;16.98;7.50;;;;;;;17.14;100.00;99872.97;4967869;28;20076;-80
2023/06/25 01:19:57;;;;;;;16.98;7.10;;;;;;;17.11;100.00;99863.47;4943434;28;20042;-81
2023/06/25 01:22:29;;;;;;;14.65;7.20;;;;;;;17.15;100.00;99871.91;4973280;28;20377;-80
2023/06/25 01:24:59;;;;;;;11.25;6.65;;;;;;;17.14;100.00;99870.28;4990891;28;20065;-80
2023/06/25 01:27:25;;;;;;;14.05;7.10;;;;;;;17.09;100.00;99873.53;4948861;28;20057;-81
2023/06/25 01:29:51;;;;;;;13.70;7.07;;;;;;;17.09;100.00;99878.88;4940267;28;20088;-80
2023/06/25 01:32:18;;;;;;;10.82;6.45;;;;;;;17.12;100.00;99865.13;4956871;28;20052;-81
2023/06/25 01:34:44;;;;;;;13.18;6.88;;;;;;;17.10;100.00;99870.66;4939152;28;20149;-80
2023/06/25 01:37:11;;;;;;;14.80;6.75;;;;;;;17.09;100.00;99879.72;4938190;28;20052;-80
2023/06/25 01:39:37;;;;;;;11.45;6.22;;;;;;;17.09;100.00;99865.53;4936654;28;20030;-79
2023/06/25 01:42:04;;;;;;;10.82;6.45;;;;;;;17.06;100.00;99849.88;4952672;28;20109;-80
2023/06/25 01:44:31;;;;;;;11.85;6.30;;;;;;;17.03;100.00;99856.47;4968545;28;20461;-81
2023/06/25 01:46:59;;;;;;;16.65;6.20;;;;;;;17.03;100.00;99869.81;4964169;28;20061;-80
2023/06/25 01:49:25;;;;;;;12.25;5.97;;;;;;;17.01;100.00;99860.38;4971351;28;20068;-80
2023/06/25 01:51:51;;;;;;;12.93;5.88;;;;;;;17.02;100.00;99868.16;4957291;28;20145;-79
2023/06/25 01:54:17;;;;;;;12.38;5.80;;;;;;;17.04;100.00;99858.09;4924709;28;20058;-79
2023/06/25 01:56:43;;;;;;;14.20;5.68;;;;;;;17.04;100.00;99858.09;4952446;28;20042;-80
2023/06/25 01:59:10;;;;;;;12.60;6.38;;;;;;;17.04;100.00;99836.72;4920735;28;20045;-80
2023/06/25 02:01:35;;;;;;;15.80;5.80;;;;;;;17.03;100.00;99821.75;4942823;28;20236;-80
2023/06/25 02:04:02;;;;;;;16.52;5.72;;;;;;;16.99;100.00;99815.97;4951928;28;20035;-80
2023/06/25 02:06:28;;;;;;;13.30;5.10;;;;;;;16.99;100.00;99826.66;4951166;28;20039;-79
2023/06/25 02:08:53;;;;;;;13.35;6.03;;;;;;;16.96;100.00;99829.72;4958867;28;20046;-82
2023/06/25 02:11:19;;;;;;;12.75;5.80;;;;;;;16.94;100.00;99814.97;4931665;28;20093;-83
2023/06/25 02:13:45;;;;;;;11.10;5.55;;;;;;;16.93;100.00;99813.31;4936725;28;20477;-80
2023/06/25 02:16:11;;;;;;;10.73;4.70;;;;;;;16.91;100.00;99818.88;4937356;28;20060;-79
2023/06/25 02:18:37;;;;;;;12.52;5.32;;;;;;;16.91;100.00;99813.53;4921510;28;20082;-81
2023/06/25 02:21:03;;;;;;;14.85;5.72;;;;;;;16.94;100.00;99809.63;4948849;28;20039;-83
2023/06/25 02:23:29;;;;;;;12.63;5.80;;;;;;;16.91;100.00;99802.84;4962936;28;20038;-79
2023/06/25 02:25:55;;;;;;;11.40;5.63;;;;;;;16.92;100.00;99801.81;4925976;28;20034;-79
2023/06/25 02:28:21;;;;;;;17.30;5.93;;;;;;;16.88;100.00;99789.91;4924600;28;20095;-79
2023/06/25 02:30:46;;;;;;;14.35;5.50;;;;;;;16.85;100.00;99791.13;4968951;28;20034;-81
2023/06/25 02:33:12;;;;;;;11.43;5.03;;;;;;;16.88;100.00;99805.94;4922884;28;20046;-81
2023/06/25 02:35:39;;;;;;;13.70;5.88;;;;;;;16.91;100.00;99804.69;4930364;28;20035;-80
2023/06/25 02:38:05;;;;;;;10.95;5.25;;;;;;;16.91;100.00;99816.19;4960893;28;20063;-80
2023/06/25 02:40:31;;;;;;;15.52;5.10;;;;;;;16.90;100.00;99801.19;4949190;28;20030;-80
2023/06/25 02:42:57;;;;;;;12.32;5.05;;;;;;;16.93;100.00;99798.09;4930077;28;20045;-84
2023/06/25 02:45:24;;;;;;;11.90;5.78;;;;;;;16.86;100.00;99802.63;4953242;28;20031;-83
2023/06/25 02:47:51;;;;;;;13.98;5.47;;;;;;;16.87;100.00;99780.22;4935081;28;20562;-80
2023/06/25 02:50:17;;;;;;;16.70;5.53;;;;;;;16.88;100.00;99760.56;4961942;28;20573;-80
2023/06/25 02:52:46;;;;;;;14.50;4.97;;;;;;;16.85;100.00;99763.63;4928480;28;20140;-79
2023/06/25 02:55:13;;;;;;;15.93;6.05;;;;;;;16.84;100.00;99781.47;4945952;28;20051;-80
2023/06/25 02:57:38;;;;;;;15.80;6.28;;;;;;;16.86;100.00;99781.28;4957273;28;20050;-80
2023/06/25 03:00:05;;;;;;;13.32;5.82;;;;;;;16.91;100.00;99767.31;4977023;28;20378;-80
2023/06/25 03:02:32;;;;;;;10.20;5.18;;;;;;;16.90;100.00;99763.00;4958034;28;20035;-80
2023/06/25 03:04:58;;;;;;;18.30;6.10;;;;;;;16.88;100.00;99762.38;4951196;28;20042;-80
2023/06/25 03:07:24;;;;;;;11.15;5.22;;;;;;;16.89;100.00;99750.66;4969781;28;20050;-80
2023/06/25 03:09:52;;;;;;;15.20;5.47;;;;;;;16.89;100.00;99756.84;4956079;28;20126;-79
2023/06/25 03:12:19;;;;;;;11.77;5.47;;;;;;;16.95;100.00;99758.69;4972611;28;20493;-82
2023/06/25 03:14:45;;;;;;;9.63;5.07;;;;;;;16.91;100.00;99749.47;4948935;28;20050;-82
2023/06/25 03:17:11;;;;;;;13.68;5.80;;;;;;;16.94;100.00;99746.38;4957592;28;20049;-80
2023/06/25 03:19:37;;;;;;;12.68;5.88;;;;;;;16.97;100.00;99726.47;4980279;28;20792;-80
2023/06/25 03:22:03;;;;;;;12.70;5.95;;;;;;;16.99;100.00;99725.22;4944398;28;20045;-79
2023/06/25 03:24:31;;;;;;;10.43;5.55;;;;;;;16.99;100.00;99719.06;4978264;28;20039;-80
2023/06/25 03:26:57;;;;;;;9.98;5.55;;;;;;;17.00;100.00;99726.06;4958442;28;20042;-80
2023/06/25 03:29:23;;;;;;;12.10;5.93;;;;;;;17.02;100.00;99709.81;4952553;28;20053;-81
2023/06/25 03:31:49;;;;;;;13.90;6.00;;;;;;;17.01;100.00;99701.00;4986215;28;20027;-81
2023/06/25 03:34:19;;;;;;;13.35;5.97;;;;;;;17.01;100.00;99708.19;4949298;28;20031;-80
2023/06/25 03:36:45;;;;;;;13.48;5.80;;;;;;;17.02;100.00;99713.31;4975310;28;20030;-80
2023/06/25 03:39:11;;;;;;;13.80;5.38;;;;;;;16.99;100.00;99716.41;4967458;28;20042;-79
2023/06/25 03:41:37;;;;;;;15.25;5.70;;;;;;;16.99;100.00;99705.72;4957875;28;20659;-80
2023/06/25 03:44:04;;;;;;;10.93;5.47;;;;;;;16.99;100.00;99711.06;4983282;28;20100;-79
2023/06/25 03:46:31;;;;;;;10.07;4.60;;;;;;;17.01;100.00;99710.88;4960087;28;20096;-79
2023/06/25 03:48:57;;;;;;;11.25;5.40;;;;;;;16.99;100.00;99706.53;4989480;28;20038;-79
2023/06/25 03:51:24;;;;;;;10.23;4.95;;;;;;;17.01;100.00;99719.66;4969026;28;20121;-80
2023/06/25 03:53:49;;;;;;;14.25;5.32;;;;;;;16.99;100.00;99708.41;4936727;29;20074;-81
2023/06/25 03:56:15;;;;;;;11.93;5.10;;;;;;;16.99;100.00;99695.06;4950993;28;20039;-80
2023/06/25 03:58:41;;;;;;;10.35;5.95;;;;;;;17.01;100.00;99713.53;4939100;28;20399;-79
2023/06/25 04:01:07;;;;;;;17.05;5.82;;;;;;;16.99;100.00;99713.75;4940460;28;20045;-80
2023/06/25 04:03:33;;;;;;;12.30;5.50;;;;;;;16.99;100.00;99713.75;4938400;28;20038;-80
2023/06/25 04:05:59;;;;;;;12.32;5.15;;;;;;;16.95;100.00;99717.81;4956578;28;20094;-80
2023/06/25 04:08:25;;;;;;;9.68;4.53;;;;;;;16.94;100.00;99740.22;4976090;28;20042;-81
2023/06/25 04:10:52;;;;;;;11.75;4.57;;;;;;;16.96;100.00;99740.84;4953616;28;20035;-81
2023/06/25 04:13:18;;;;;;;7.25;3.42;;;;;;;16.93;100.00;99734.03;4967625;28;20039;-80
2023/06/25 04:15:43;;;;;;;4.60;2.88;;;;;;;16.82;100.00;99737.31;4952433;28;20035;-79
2023/06/25 04:18:09;;;;;;;4.35;2.50;;;;;;;16.78;100.00;99744.09;4966941;28;20034;-79
2023/06/25 04:20:35;;;;;;;3.53;2.42;;;;;;;16.69;100.00;99736.28;4965177;28;20062;-79
2023/06/25 04:23:01;;;;;;;3.25;2.42;;;;;;;16.66;100.00;99750.00;4946289;28;20682;-79
2023/06/25 04:25:27;;;;;;;5.97;2.70;;;;;;;16.59;100.00;99759.88;4978819;28;20709;-79
2023/06/25 04:27:55;;;;;;;5.65;2.70;;;;;;;16.56;100.00;99753.06;4963823;28;20034;-79
2023/06/25 04:30:21;;;;;;;3.70;3.15;;;;;;;16.56;100.00;99758.41;4972101;28;20045;-79
2023/06/25 04:32:49;;;;;;;7.30;3.45;;;;;;;16.55;100.00;99758.59;4948900;28;20046;-79
2023/06/25 04:35:17;;;;;;;4.50;2.88;;;;;;;16.55;100.00;99769.28;4972082;28;20035;-79
2023/06/25 04:37:44;;;;;;;5.05;3.15;;;;;;;16.52;100.00;99772.34;4954764;28;20492;-80
2023/06/25 04:40:12;;;;;;;3.88;2.92;;;;;;;16.51;100.00;99774.22;4955250;28;20085;-80
2023/06/25 04:42:38;;;;;;;4.65;2.97;;;;;;;16.46;100.00;99766.81;4970009;28;20035;-80
2023/06/25 04:45:05;;;;;;;5.32;3.33;;;;;;;16.46;100.00;99761.47;4968718;28;20059;-80
2023/06/25 04:47:32;;;;;;;7.10;3.53;;;;;;;16.45;100.00;99764.34;4929329;28;20070;-80
2023/06/25 04:49:58;;;;;;;3.78;3.25;;;;;;;16.46;100.00;99764.13;4953647;28;20042;-79
2023/06/25 04:52:24;;;;;;;5.10;3.28;;;;;;;16.42;100.00;99776.22;4970643;28;20043;-80
2023/06/25 04:54:50;;;;;;;5.95;3.38;;;;;;;16.41;100.00;99782.56;4956822;28;20038;-80
2023/06/25 04:57:16;;;;;;;7.53;3.53;;;;;;;16.36;100.00;99777.00;4980847;28;20444;-81
2023/06/25 04:59:42;;;;;;;4.72;3.42;;;;;;;16.36;100.00;99761.00;4958748;28;20036;-80
2023/06/25 05:02:08;;;;;;;3.17;2.83;;;;;;;16.33;100.00;99764.06;4970941;28;20042;-80
2023/06/25 05:04:34;;;;;;;4.28;2.97;;;;;;;16.35;100.00;99749.53;4957619;28;20034;-80
2023/06/25 05:07:00;;;;;;;6.72;3.33;;;;;;;16.38;100.00;99761.63;4958249;28;20038;-80
2023/06/25 05:09:25;;;;;;;4.97;3.22;;;;;;;16.39;100.00;99759.81;4958272;28;20031;-81
2023/06/25 05:11:51;;;;;;;6.53;3.38;;;;;;;16.40;100.00;99764.94;4974710;28;20078;-80
2023/06/25 05:14:17;;;;;;;8.52;3.78;;;;;;;16.43;100.00;99761.03;4948764;28;20072;-80
2023/06/25 05:16:43;;;;;;;10.75;3.35;;;;;;;16.41;100.00;99755.06;4938814;28;20525;-81
2023/06/25 05:19:09;;;;;;;6.88;3.38;;;;;;;16.37;100.00;99758.13;4962779;28;20036;-80
2023/06/25 05:21:34;;;;;;;9.20;2.90;;;;;;;16.37;100.00;99758.13;4960536;28;20027;-80
2023/06/25 05:24:03;;;;;;;5.25;3.03;;;;;;;16.40;100.00;99754.28;4959184;28;20035;-80
2023/06/25 05:26:29;;;;;;;4.35;3.10;;;;;;;16.42;100.00;99744.22;4957365;28;20034;-80
2023/06/25 05:28:56;;;;;;;5.55;3.20;;;;;;;16.48;100.00;99738.06;4969982;28;20043;-80
2023/06/25 05:31:22;;;;;;;3.95;2.80;;;;;;;16.50;100.00;99740.53;4984753;28;20035;-80
2023/06/25 05:33:47;;;;;;;4.63;2.70;;;;;;;16.48;100.00;99740.72;4955727;28;20042;-80
2023/06/25 05:36:14;;;;;;;4.78;2.70;;;;;;;16.45;100.00;99751.00;4971286;28;20042;-80
2023/06/25 05:38:40;;;;;;;4.78;3.03;;;;;;;16.42;100.00;99741.53;4941155;28;20046;-81
2023/06/25 05:41:06;;;;;;;4.30;2.55;;;;;;;16.36;100.00;99726.34;4941828;28;20109;-81
2023/06/25 05:43:32;;;;;;;4.22;2.75;;;;;;;16.36;100.00;99718.34;4956017;28;20030;-81
2023/06/25 05:45:57;;;;;;;6.10;2.85;;;;;;;16.34;100.00;99729.22;4965980;28;20408;-80
2023/06/25 05:48:23;;;;;;;7.10;2.63;;;;;;;16.34;100.00;99739.06;4977374;28;20480;-80
2023/06/25 05:50:49;;;;;;;3.90;2.30;;;;;;;16.34;100.00;99728.41;4956447;28;20034;-80
2023/06/25 05:53:15;;;;;;;4.38;2.50;;;;;;;16.36;100.00;99729.84;4972419;28;20082;-80
2023/06/25 05:55:41;;;;;;;4.93;2.60;;;;;;;16.43;100.00;99737.03;4966472;28;20046;-81
2023/06/25 05:58:07;;;;;;;3.25;2.30;;;;;;;16.46;100.00;99733.97;4960344;28;20042;-79
2023/06/25 06:00:33;;;;;;;7.47;3.50;;;;;;;16.53;100.00;99740.13;4953776;28;20038;-80
2023/06/25 06:02:58;;;;;;;7.70;2.72;;;;;;;16.61;100.00;99771.16;4954054;28;20039;-81
2023/06/25 06:05:24;;;;;;;5.47;2.90;;;;;;;16.62;100.00;99772.78;4955879;28;20397;-81
2023/06/25 06:07:50;;;;;;;5.95;2.83;;;;;;;16.62;100.00;99780.81;4941604;28;20065;-79
2023/06/25 06:10:16;;;;;;;5.45;2.80;;;;;;;16.61;100.00;99777.31;4966624;28;20710;-79
2023/06/25 06:12:42;;;;;;;4.90;2.88;;;;;;;16.59;100.00;99765.19;4972054;28;20026;-80
2023/06/25 06:15:08;;;;;;;3.10;2.40;;;;;;;16.58;100.00;99766.22;4970362;28;20035;-80
2023/06/25 06:17:34;;;;;;;7.10;3.22;;;;;;;16.60;100.00;99762.31;4965655;28;20030;-79
2023/06/25 06:20:00;;;;;;;5.97;3.30;;;;;;;16.59;100.00;99760.69;4970250;28;20042;-79
2023/06/25 06:22:26;;;;;;;2.80;2.45;;;;;;;16.61;100.00;99771.16;4941703;28;20700;-81
2023/06/25 06:24:52;;;;;;;5.25;2.78;;;;;;;16.61;100.00;99763.16;4990931;28;20096;-82
2023/06/25 06:27:18;;;;;;;5.32;2.40;;;;;;;16.58;100.00;99760.91;4971090;28;20082;-80
2023/06/25 06:29:43;;;;;;;6.93;3.17;;;;;;;16.60;100.00;99758.81;5004328;28;20133;-80
2023/06/25 06:32:09;;;;;;;3.72;2.42;;;;;;;16.63;100.00;99747.75;4967530;28;20396;-82
2023/06/25 06:34:36;;;;;;;4.80;2.60;;;;;;;16.66;100.00;99767.88;4928479;28;20485;-81
2023/06/25 06:37:03;;;;;;;5.90;2.88;;;;;;;16.65;100.00;99777.72;4961213;28;20038;-81
2023/06/25 06:39:29;;;;;;;3.50;2.60;;;;;;;16.63;100.00;99770.97;4966063;28;20027;-81
2023/06/25 06:41:54;;;;;;;4.40;2.63;;;;;;;16.64;100.00;99775.25;4955267;28;20037;-81
2023/06/25 06:44:24;;;;;;;2.60;2.00;;;;;;;16.56;100.00;99782.41;4946561;28;20043;-82
2023/06/25 06:46:49;;;;;;;4.53;2.50;;;;;;;16.52;100.00;99775.00;4955808;28;20046;-81
2023/06/25 06:49:17;;;;;;;3.10;2.42;;;;;;;16.49;100.00;99781.56;4959203;28;20037;-80
2023/06/25 06:51:43;;;;;;;4.85;2.55;;;;;;;16.45;100.00;99780.34;4948773;28;20038;-80
2023/06/25 06:54:09;;;;;;;3.53;1.92;;;;;;;16.41;100.00;99779.91;4949663;28;20057;-81
2023/06/25 06:56:35;;;;;;;3.83;2.10;;;;;;;16.41;100.00;99789.75;4951732;28;20038;-82
2023/06/25 06:59:01;;;;;;;4.97;2.05;;;;;;;16.46;100.00;99797.97;4921799;28;20097;-80
2023/06/25 07:01:27;;;;;;;4.38;1.90;;;;;;;16.45;100.00;99793.69;4950244;28;20023;-81
2023/06/25 07:03:52;;;;;;;4.05;2.20;;;;;;;16.47;100.00;99796.94;4944809;28;20126;-81
2023/06/25 07:06:20;;;;;;;4.72;1.77;;;;;;;16.49;100.00;99789.59;4967939;28;20038;-83
2023/06/25 07:08:46;;;;;;;3.13;1.88;;;;;;;16.49;100.00;99797.59;4933371;28;20493;-82
2023/06/25 07:11:16;;;;;;;6.38;2.35;;;;;;;16.47;100.00;99775.59;4961084;28;20035;-81
2023/06/25 07:13:46;;;;;;;7.20;2.28;;;;;;;16.52;100.00;99797.19;4969689;28;20044;-81
2023/06/25 07:16:12;;;;;;;4.05;0.88;;;;;;;16.45;100.00;99791.81;5006970;28;20034;-79
2023/06/25 07:18:38;;;;;;;2.30;0.70;;;;;;;16.25;100.00;99794.41;4957155;28;20124;-79
2023/06/25 07:21:05;;;;;;;1.15;0.68;;;;;;;16.14;100.00;99786.97;4953722;28;20410;-79
2023/06/25 07:23:32;;;;;;;2.30;0.75;;;;;;;16.18;100.00;99804.22;4937805;28;20113;-80
2023/06/25 07:25:58;;;;;;;1.70;0.70;;;;;;;16.20;100.00;99805.66;4962315;28;20043;-80
2023/06/25 07:28:24;;;;;;;1.33;0.80;;;;;;;16.25;100.00;99810.41;4968943;28;20172;-81
2023/06/25 07:30:50;;;;;;;0.55;0.50;;;;;;;16.26;100.00;99813.91;4944846;28;20461;-81
2023/06/25 07:33:16;;;;;;;1.95;0.60;;;;;;;16.27;100.00;99813.72;4937101;28;20035;-81
2023/06/25 07:35:42;;;;;;;0.85;0.52;;;;;;;16.28;100.00;99806.50;4978239;28;20493;-80
2023/06/25 07:38:07;;;;;;;1.17;0.68;;;;;;;16.27;100.00;99781.72;4945606;28;20050;-80
2023/06/25 07:40:33;;;;;;;3.45;0.73;;;;;;;16.29;100.00;99773.50;4933236;29;20031;-81
2023/06/25 07:42:59;;;;;;;1.20;0.50;;;;;;;16.35;100.00;99794.03;4932905;28;20050;-80
2023/06/25 07:45:25;;;;;;;1.80;0.63;;;;;;;16.37;100.00;99811.47;4922007;29;20042;-81
2023/06/25 07:47:50;;;;;;;1.58;0.60;;;;;;;16.40;100.00;99809.44;4933051;28;20042;-80
2023/06/25 07:50:16;;;;;;;1.20;0.57;;;;;;;16.41;100.00;99811.09;4939051;28;20069;-81
2023/06/25 07:52:42;;;;;;;2.75;0.77;;;;;;;16.44;100.00;99816.03;4942340;28;20386;-79
2023/06/25 07:55:08;;;;;;;2.15;0.70;;;;;;;16.50;100.00;99831.22;4989809;28;20053;-80
2023/06/25 07:57:34;;;;;;;2.58;0.50;;;;;;;16.51;100.00;99824.88;4970396;28;20412;-81
2023/06/25 08:00:00;;;;;;;1.80;0.50;;;;;;;16.51;100.00;99824.88;4968497;28;20109;-81
2023/06/25 08:02:26;;;;;;;0.43;0.38;;;;;;;16.56;100.00;99825.09;4996628;28;20580;-81
2023/06/25 08:04:51;;;;;;;2.53;0.40;;;;;;;16.69;100.00;99819.00;4963042;28;20539;-81
2023/06/25 08:07:17;;;;;;;3.40;0.70;;;;;;;16.82;100.00;99831.56;4963943;28;20041;-81
2023/06/25 08:09:44;;;;;;;1.10;0.40;;;;;;;16.93;100.00;99837.34;4962568;28;20059;-80
2023/06/25 08:12:11;;;;;;;2.97;0.60;;;;;;;17.03;100.00;99835.09;4946216;28;20031;-80
2023/06/25 08:14:37;;;;;;;1.17;0.50;;;;;;;17.13;100.00;99834.75;4968475;28;20109;-80
2023/06/25 08:17:02;;;;;;;1.42;0.47;;;;;;;17.15;100.00;99837.22;4949485;28;20450;-79
2023/06/25 08:19:28;;;;;;;1.98;0.43;;;;;;;17.22;100.00;99838.88;4955894;28;20548;-80
2023/06/25 08:21:54;;;;;;;4.78;0.30;;;;;;;17.25;100.00;99842.97;4985327;28;20030;-79
2023/06/25 08:24:20;;;;;;;2.40;0.30;;;;;;;17.21;100.00;99844.41;4952786;28;20376;-80
2023/06/25 08:26:46;;;;;;;3.90;0.63;;;;;;;17.19;100.00;99843.78;4975078;28;20130;-80
2023/06/25 08:29:11;;;;;;;1.13;0.40;;;;;;;17.19;100.00;99841.09;4978260;28;20070;-82
2023/06/25 08:31:37;;;;;;;4.45;0.40;;;;;;;17.18;100.00;99853.66;4949652;28;20089;-80
2023/06/25 08:34:03;;;;;;;2.10;0.50;;;;;;;17.18;100.00;99852.81;4972747;28;20035;-81
2023/06/25 08:36:29;;;;;;;3.85;0.70;;;;;;;17.18;100.00;99856.31;4969317;28;20042;-80
2023/06/25 08:38:55;;;;;;;3.10;0.77;;;;;;;17.13;100.00;99845.41;4974704;28;20031;-81
2023/06/25 08:41:21;;;;;;;2.03;0.85;;;;;;;17.12;100.00;99843.75;4972690;28;20042;-80
2023/06/25 08:43:47;;;;;;;3.85;0.57;;;;;;;17.10;100.00;99851.97;4971605;28;20444;-80
2023/06/25 08:46:14;;;;;;;3.47;0.50;;;;;;;17.09;100.00;99866.34;4953753;28;20172;-81
2023/06/25 08:48:40;;;;;;;2.53;0.45;;;;;;;17.04;100.00;99866.09;4967134;28;20608;-81
2023/06/25 08:51:21;;;;;;;2.30;0.50;;;;;;;17.05;100.00;99862.44;4971162;28;20046;-81
2023/06/25 08:53:47;;;;;;;3.08;0.40;;;;;;;17.04;100.00;99862.63;4918422;29;20058;-80
2023/06/25 08:56:17;;;;;;;1.88;0.30;;;;;;;17.18;100.00;99871.53;4949623;28;20039;-80
2023/06/25 08:58:44;;;;;;;4.57;0.50;;;;;;;17.27;100.00;99869.47;4961797;28;20074;-81
2023/06/25 09:01:14;;;;;;;5.65;0.50;;;;;;;17.39;100.00;99867.03;4922784;28;20425;-80
2023/06/25 09:03:44;;;;;;;1.90;0.40;;;;;;;17.56;100.00;99870.94;4971186;28;20030;-81
2023/06/25 09:06:15;;;;;;;4.95;0.40;;;;;;;17.65;100.00;99873.41;4928497;28;20085;-82
2023/06/25 09:08:42;;;;;;;3.63;0.40;;;;;;;17.61;100.00;99865.78;4958671;28;20607;-81
2023/06/25 09:11:09;;;;;;;2.38;0.30;;;;;;;17.75;100.00;99871.16;4952012;28;20039;-82
2023/06/25 09:13:36;;;;;;;4.22;0.40;;;;;;;17.92;100.00;99863.53;4927697;29;20039;-80
2023/06/25 09:16:04;;;;;;;1.33;0.38;;;;;;;18.04;100.00;99866.41;4968314;28;20714;-82
2023/06/25 09:18:31;;;;;;;1.33;0.25;;;;;;;18.01;100.00;99868.66;4934636;29;20070;-80
2023/06/25 09:21:03;;;;;;;4.88;0.40;;;;;;;18.01;100.00;99860.66;4953124;28;20093;-81
2023/06/25 09:23:29;;;;;;;2.47;0.40;;;;;;;18.06;100.00;99861.66;4945745;28;20076;-82
2023/06/25 09:25:55;;;;;;;5.05;0.60;;;;;;;18.14;100.00;99862.50;4927482;28;20134;-83
2023/06/25 09:28:21;;;;;;;3.55;0.50;;;;;;;18.13;100.00;99866.19;4935379;28;20038;-81
2023/06/25 09:30:47;;;;;;;4.13;0.38;;;;;;;18.15;100.00;99877.50;4926008;28;20417;-81
2023/06/25 09:33:15;;;;;;;2.90;0.30;;;;;;;18.17;100.00;99868.25;4969251;28;20097;-82
2023/06/25 09:35:41;;;;;;;3.70;0.30;;;;;;;18.12;100.00;99872.59;4952667;28;20065;-80
2023/06/25 09:38:07;;;;;;;2.25;0.38;;;;;;;18.17;100.00;99875.47;4969114;28;20425;-82
2023/06/25 09:40:33;;;;;;;1.58;0.28;;;;;;;18.15;100.00;99873.00;4927899;28;20035;-82
2023/06/25 09:43:00;;;;;;;1.48;0.30;;;;;;;18.26;100.00;99881.41;4921520;28;20401;-80
2023/06/25 09:45:27;;;;;;;6.22;0.60;;;;;;;18.40;100.00;99877.66;4935419;28;20077;-80
2023/06/25 09:47:55;;;;;;;3.10;0.32;;;;;;;18.49;100.00;99878.22;4923287;28;20510;-81
2023/06/25 09:50:44;;;;;;;1.90;0.52;;;;;;;18.50;100.00;99876.38;4953555;28;20061;-81
2023/06/25 09:53:22;;;;;;;3.50;0.52;;;;;;;18.53;100.00;99884.00;4927775;28;20053;-82
2023/06/25 09:55:50;;;;;;;3.33;0.50;;;;;;;18.42;100.00;99883.63;4978304;28;20405;-80
2023/06/25 09:58:18;;;;;;;1.90;0.40;;;;;;;18.38;100.00;99890.41;4955722;28;20077;-81
2023/06/25 10:00:44;;;;;;;2.40;0.52;;;;;;;18.38;100.00;99887.75;4965921;28;20110;-80
2023/06/25 10:03:12;;;;;;;4.15;0.68;;;;;;;18.47;100.00;99889.16;4955414;28;20476;-80
2023/06/25 10:05:39;;;;;;;2.65;0.40;;;;;;;18.56;100.00;99891.59;4961903;28;20066;-81
2023/06/25 10:08:05;;;;;;;3.53;0.40;;;;;;;18.67;100.00;99885.59;4987611;28;20034;-81
2023/06/25 10:10:31;;;;;;;3.08;0.60;;;;;;;18.79;100.00;99887.63;4971898;28;20096;-80
2023/06/25 10:13:01;;;;;;;2.72;0.50;;;;;;;18.92;100.00;99889.41;4954228;28;20043;-80
2023/06/25 10:15:33;;;;;;;1.73;0.70;;;;;;;19.07;100.00;99879.22;4970653;28;20839;-81
2023/06/25 10:18:00;;;;;;;3.88;0.82;;;;;;;18.97;100.00;99890.41;4958532;28;20455;-80
2023/06/25 10:20:35;;;;;;;5.65;0.70;;;;;;;18.92;100.00;99892.91;4975639;28;20041;-81
2023/06/25 10:23:12;;;;;;;1.03;0.30;;;;;;;18.80;100.00;99890.06;4944295;28;20062;-82
2023/06/25 10:25:56;;;;;;;5.60;0.63;;;;;;;18.70;100.00;99889.69;4979463;28;20464;-81
2023/06/25 10:28:36;;;;;;;5.38;0.63;;;;;;;18.65;100.00;99897.56;4939561;28;20089;-82
2023/06/25 10:31:15;;;;;;;4.20;0.60;;;;;;;18.70;100.00;99903.91;4968711;28;20039;-80
2023/06/25 10:33:42;;;;;;;4.70;0.82;;;;;;;18.60;100.00;99903.53;4954119;28;20129;-81
2023/06/25 10:36:08;;;;;;;4.93;0.40;;;;;;;18.53;100.00;99900.88;4955925;28;20038;-80
2023/06/25 10:38:34;;;;;;;2.47;0.40;;;;;;;18.61;100.00;99899.81;4918873;28;20022;-82
2023/06/25 10:41:00;;;;;;;6.10;0.50;;;;;;;18.75;100.00;99903.28;4971244;28;20038;-80
2023/06/25 10:43:26;;;;;;;4.72;0.55;;;;;;;18.91;100.00;99901.13;4958984;28;20046;-79
2023/06/25 10:45:56;;;;;;;4.70;0.80;;;;;;;19.04;100.00;99892.22;4974754;28;20034;-81
2023/06/25 10:48:23;;;;;;;4.10;0.50;;;;;;;19.23;100.00;99900.38;4971897;28;20543;-82
2023/06/25 10:50:51;;;;;;;2.83;0.50;;;;;;;19.38;100.00;99898.25;4943457;28;20507;-80
2023/06/25 10:53:19;;;;;;;1.80;0.47;;;;;;;19.56;100.00;99893.97;4992685;28;20081;-83
2023/06/25 10:55:48;;;;;;;2.50;0.50;;;;;;;19.66;100.00;99897.00;4965612;28;20034;-80
2023/06/25 10:58:16;;;;;;;3.80;0.88;;;;;;;19.78;100.00;99899.78;4959688;28;20038;-81
2023/06/25 11:00:43;;;;;;;2.88;0.50;;;;;;;20.00;100.00;99902.09;4953483;28;20449;-81
2023/06/25 11:03:09;;;;;;;2.90;0.63;;;;;;;20.17;100.00;99891.63;4912627;28;20034;-81
2023/06/25 11:05:40;;;;;;;2.53;0.52;;;;;;;20.05;100.00;99898.78;4942874;28;20384;-81
2023/06/25 11:08:07;;;;;;;2.25;0.60;;;;;;;19.93;100.00;99910.19;4949001;28;20034;-81
2023/06/25 11:10:34;;;;;;;1.65;0.50;;;;;;;19.88;100.00;99903.81;4947815;28;20489;-81
2023/06/25 11:13:01;;;;;;;2.38;0.80;;;;;;;19.92;100.00;99913.91;4944840;28;20034;-82
2023/06/25 11:15:32;;;;;;;2.78;0.52;;;;;;;19.97;100.00;99913.25;4960481;28;20048;-81
2023/06/25 11:17:59;;;;;;;1.92;0.47;;;;;;;19.91;100.00;99911.44;4944353;28;20038;-84
2023/06/25 11:20:26;;;;;;;3.97;0.77;;;;;;;19.95;100.00;99913.47;4957497;28;20038;-82